Time;durP1;ratioP1;P1;durP2;ratioP2;P2;SDS_P1;SDS_P2;PMS_P1;PMS_P2;Temp;Humidity;BMP_temperature;BMP_pressure;BME280_temperature;BME280_humidity;BME280_pressure;Samples;Min_cycle;Max_cycle;Signal;HPM_P1;HPM_P2
2021/08/12 00:00:51;;;;;;;100.13;16.90;;;25.30;75.30;;;;;;5024784;28;20040;-60
2021/08/12 00:03:17;;;;;;;83.97;15.45;;;25.40;75.40;;;;;;5040536;28;20037;-60
2021/08/12 00:05:42;;;;;;;86.95;16.60;;;25.20;75.40;;;;;;5042039;28;20045;-59
2021/08/12 00:08:08;;;;;;;83.10;15.10;;;25.20;75.50;;;;;;5039002;28;20056;-59
2021/08/12 00:10:33;;;;;;;72.60;14.27;;;25.10;75.50;;;;;;5042552;28;20115;-59
2021/08/12 00:12:59;;;;;;;89.43;15.73;;;25.20;75.70;;;;;;5042823;28;20053;-59
2021/08/12 00:15:24;;;;;;;67.47;14.40;;;25.10;75.70;;;;;;5041278;28;20335;-60
2021/08/12 00:17:52;;;;;;;71.25;14.35;;;25.10;75.90;;;;;;5024941;28;20083;-60
2021/08/12 00:20:17;;;;;;;66.45;13.98;;;25.00;75.90;;;;;;5021780;28;20390;-59
2021/08/12 00:22:43;;;;;;;53.92;13.95;;;25.10;76.00;;;;;;5023421;28;20072;-59
2021/08/12 00:25:09;;;;;;;59.15;13.77;;;25.00;76.00;;;;;;5041563;28;20076;-59
2021/08/12 00:27:34;;;;;;;56.45;14.05;;;25.00;76.10;;;;;;5024073;28;20493;-59
2021/08/12 00:30:00;;;;;;;48.75;13.10;;;24.90;76.20;;;;;;5022183;28;20544;-59
2021/08/12 00:32:25;;;;;;;51.45;13.50;;;24.90;76.30;;;;;;5025048;28;20036;-59
2021/08/12 00:34:51;;;;;;;51.35;13.95;;;24.90;76.40;;;;;;5040178;28;20037;-60
2021/08/12 00:37:16;;;;;;;56.40;12.95;;;24.90;76.50;;;;;;5042416;28;20186;-59
2021/08/12 00:39:42;;;;;;;55.28;13.38;;;24.90;76.50;;;;;;5041069;28;20096;-59
2021/08/12 00:42:08;;;;;;;64.85;13.13;;;24.80;76.60;;;;;;5024611;28;20045;-59
2021/08/12 00:44:33;;;;;;;51.30;13.15;;;24.80;76.60;;;;;;5022913;28;20033;-59
2021/08/12 00:46:59;;;;;;;46.25;13.50;;;24.80;76.70;;;;;;5025010;28;20567;-59
2021/08/12 00:49:24;;;;;;;38.38;13.50;;;24.80;76.80;;;;;;5041147;28;20033;-60
2021/08/12 00:51:50;;;;;;;35.15;13.20;;;24.70;76.80;;;;;;5042170;28;20029;-59
2021/08/12 00:54:15;;;;;;;40.55;12.07;;;24.90;77.00;;;;;;5022083;28;20458;-59
2021/08/12 00:56:42;;;;;;;41.88;13.55;;;24.70;77.00;;;;;;5024510;28;20047;-59
2021/08/12 00:59:07;;;;;;;45.17;12.50;;;24.70;77.10;;;;;;5040890;28;20025;-59
2021/08/12 01:01:33;;;;;;;48.13;12.20;;;24.60;77.10;;;;;;5023290;28;20028;-59
2021/08/12 01:03:59;;;;;;;30.05;11.95;;;24.60;77.20;;;;;;5022829;28;20025;-60
2021/08/12 01:06:28;;;;;;;41.08;12.25;;;24.60;77.30;;;;;;5021571;28;20033;-59
2021/08/12 01:09:24;;;;;;;33.65;12.23;;;24.50;77.30;;;;;;5022281;28;20025;-59
2021/08/12 01:11:53;;;;;;;33.05;12.55;;;24.50;77.30;;;;;;5015335;28;20499;-59
2021/08/12 01:14:40;;;;;;;37.53;12.75;;;24.50;77.40;;;;;;5022733;28;20032;-59
2021/08/12 01:17:07;;;;;;;29.38;12.35;;;24.50;77.50;;;;;;5024428;28;20108;-59
2021/08/12 01:20:01;;;;;;;28.20;11.93;;;24.50;77.50;;;;;;5020877;28;20435;-59
2021/08/12 01:22:27;;;;;;;37.50;12.25;;;24.40;77.50;;;;;;5038062;28;20140;-60
2021/08/12 01:24:54;;;;;;;25.50;13.00;;;24.40;77.50;;;;;;4992515;28;20140;-59
2021/08/12 01:27:19;;;;;;;28.13;12.05;;;24.40;77.60;;;;;;5006121;28;20030;-59
2021/08/12 01:30:09;;;;;;;28.55;11.77;;;24.40;77.70;;;;;;5012255;28;20044;-59
2021/08/12 01:32:56;;;;;;;30.50;11.32;;;24.40;77.80;;;;;;4987486;28;20073;-59
2021/08/12 01:35:22;;;;;;;24.33;12.60;;;24.40;77.80;;;;;;5024617;28;20059;-60
2021/08/12 01:37:51;;;;;;;21.83;11.10;;;24.30;77.70;;;;;;5005146;28;20053;-59
2021/08/12 01:40:17;;;;;;;21.42;11.13;;;24.30;77.70;;;;;;4987113;28;20017;-59
2021/08/12 01:42:43;;;;;;;27.05;11.70;;;24.30;77.90;;;;;;4980578;28;20121;-59
2021/08/12 01:45:09;;;;;;;25.38;11.18;;;24.20;77.90;;;;;;4993227;28;20103;-60
2021/08/12 01:47:34;;;;;;;27.63;10.90;;;24.20;77.90;;;;;;5026554;28;20033;-59
2021/08/12 01:50:04;;;;;;;21.55;11.48;;;24.20;78.00;;;;;;5008813;28;20032;-59
2021/08/12 01:52:30;;;;;;;25.63;11.38;;;24.20;78.10;;;;;;5007669;28;20025;-59
2021/08/12 01:54:56;;;;;;;17.45;10.65;;;24.10;78.00;;;;;;5016452;28;20052;-59
2021/08/12 01:57:21;;;;;;;22.38;10.65;;;24.10;78.10;;;;;;4995543;28;20064;-59
2021/08/12 01:59:47;;;;;;;17.08;10.40;;;24.10;78.60;;;;;;5008601;28;20047;-59
2021/08/12 02:02:13;;;;;;;27.80;10.80;;;24.10;78.30;;;;;;5029565;28;20512;-59
2021/08/12 02:04:39;;;;;;;21.85;9.70;;;24.00;78.30;;;;;;5011091;28;20506;-60
2021/08/12 02:07:05;;;;;;;18.23;10.00;;;24.00;78.40;;;;;;5007082;28;20029;-60
2021/08/12 02:09:31;;;;;;;22.95;10.07;;;24.00;78.50;;;;;;5010595;28;20049;-59
2021/08/12 02:11:57;;;;;;;13.32;9.80;;;24.00;78.50;;;;;;5009989;28;20455;-59
2021/08/12 02:14:22;;;;;;;14.90;10.07;;;24.00;78.60;;;;;;5009288;28;20112;-59
2021/08/12 02:16:48;;;;;;;13.93;9.90;;;23.90;78.60;;;;;;5029683;28;20036;-59
2021/08/12 02:19:13;;;;;;;14.18;8.90;;;23.90;78.60;;;;;;5024896;28;20599;-60
2021/08/12 02:21:43;;;;;;;24.60;10.07;;;23.90;78.60;;;;;;5015564;28;20037;-59
2021/08/12 02:24:09;;;;;;;16.65;10.07;;;23.90;78.70;;;;;;5006352;28;20033;-59
2021/08/12 02:26:38;;;;;;;22.02;11.07;;;23.90;78.80;;;;;;5044540;28;20033;-59
2021/08/12 02:29:03;;;;;;;17.08;10.80;;;23.80;78.80;;;;;;5041986;28;20021;-60
2021/08/12 02:31:29;;;;;;;15.27;11.85;;;23.80;78.90;;;;;;4993518;28;20783;-59
2021/08/12 02:33:55;;;;;;;17.70;11.10;;;23.80;79.00;;;;;;5043057;28;20045;-59
2021/08/12 02:36:20;;;;;;;17.02;11.18;;;23.80;79.10;;;;;;5008899;28;20025;-60
2021/08/12 02:38:46;;;;;;;14.35;10.75;;;23.70;79.10;;;;;;5025642;28;20067;-59
2021/08/12 02:41:13;;;;;;;15.82;11.15;;;23.70;79.20;;;;;;5041397;28;20339;-59
2021/08/12 02:43:40;;;;;;;15.05;10.82;;;23.70;79.30;;;;;;5026185;28;20043;-59
2021/08/12 02:46:05;;;;;;;16.73;11.38;;;23.70;79.40;;;;;;5043343;28;20654;-59
2021/08/12 02:48:31;;;;;;;18.67;11.20;;;23.70;79.50;;;;;;5024125;28;20041;-59
2021/08/12 02:50:57;;;;;;;21.80;11.95;;;23.60;79.50;;;;;;5023224;28;20157;-59
2021/08/12 02:53:23;;;;;;;16.50;10.88;;;23.60;79.60;;;;;;5010385;28;20356;-59
2021/08/12 02:55:48;;;;;;;15.40;9.75;;;23.60;79.60;;;;;;5026033;28;20041;-59
2021/08/12 02:58:14;;;;;;;14.25;9.93;;;23.60;79.70;;;;;;5024959;28;20040;-59
2021/08/12 03:00:40;;;;;;;17.85;10.50;;;23.60;79.80;;;;;;5057193;28;20192;-59
2021/08/12 03:03:06;;;;;;;14.90;10.00;;;23.50;79.80;;;;;;5026357;28;20547;-59
2021/08/12 03:05:33;;;;;;;15.55;10.20;;;23.60;79.80;;;;;;5023265;28;20157;-59
2021/08/12 03:07:59;;;;;;;15.80;10.07;;;23.50;79.90;;;;;;5009049;28;20380;-59
2021/08/12 03:10:24;;;;;;;10.93;9.68;;;23.50;79.90;;;;;;5024884;28;20041;-59
2021/08/12 03:12:50;;;;;;;19.02;9.55;;;23.50;80.00;;;;;;5026642;28;20067;-59
2021/08/12 03:15:15;;;;;;;14.55;9.80;;;23.40;80.00;;;;;;5024146;28;20449;-59
2021/08/12 03:17:41;;;;;;;14.07;9.48;;;23.50;80.80;;;;;;5009462;28;20515;-60
2021/08/12 03:20:07;;;;;;;12.77;9.32;;;23.40;80.20;;;;;;5008293;28;20496;-60
2021/08/12 03:22:33;;;;;;;16.70;9.95;;;23.40;80.40;;;;;;5035415;28;20053;-60
2021/08/12 03:24:58;;;;;;;13.10;9.65;;;23.40;80.40;;;;;;5008951;28;20350;-59
2021/08/12 03:27:24;;;;;;;13.20;9.70;;;23.30;80.30;;;;;;5022539;28;20473;-59
2021/08/12 03:29:51;;;;;;;12.63;9.77;;;23.30;80.40;;;;;;5026241;28;20155;-59
2021/08/12 03:32:17;;;;;;;14.95;9.70;;;23.30;80.60;;;;;;4987947;28;20091;-59
2021/08/12 03:34:43;;;;;;;12.60;10.02;;;23.30;80.60;;;;;;5030047;28;20018;-59
2021/08/12 03:37:08;;;;;;;11.30;9.30;;;23.20;80.70;;;;;;5026701;28;20452;-59
2021/08/12 03:39:34;;;;;;;11.77;9.52;;;23.20;80.80;;;;;;5010230;28;20056;-59
2021/08/12 03:41:59;;;;;;;13.40;9.90;;;23.20;80.90;;;;;;5032029;28;20513;-62
2021/08/12 03:44:25;;;;;;;13.05;9.77;;;23.20;81.00;;;;;;5029276;28;20041;-62
2021/08/12 03:46:51;;;;;;;12.00;9.02;;;23.10;81.00;;;;;;4993816;28;20026;-62
2021/08/12 03:49:16;;;;;;;10.48;9.38;;;23.10;81.10;;;;;;5014277;28;20029;-62
2021/08/12 03:51:42;;;;;;;11.10;8.73;;;23.10;81.10;;;;;;5031271;28;20029;-59
2021/08/12 03:54:08;;;;;;;12.80;9.60;;;23.10;81.20;;;;;;5027377;28;20028;-59
2021/08/12 03:56:33;;;;;;;11.38;9.25;;;23.10;81.30;;;;;;5006715;28;20805;-59
2021/08/12 03:58:59;;;;;;;10.65;9.52;;;23.00;81.30;;;;;;5023434;28;20033;-59
2021/08/12 04:01:24;;;;;;;11.65;9.07;;;23.00;81.40;;;;;;5026626;28;20092;-60
2021/08/12 04:03:50;;;;;;;11.32;9.10;;;22.90;81.50;;;;;;5031327;28;20078;-59
2021/08/12 04:06:16;;;;;;;9.57;8.15;;;22.90;81.60;;;;;;5022673;28;20045;-60
2021/08/12 04:08:42;;;;;;;13.98;9.50;;;22.90;81.60;;;;;;5034978;28;20512;-59
2021/08/12 04:11:07;;;;;;;11.55;8.93;;;22.90;81.60;;;;;;5011365;28;20112;-59
2021/08/12 04:13:33;;;;;;;14.80;8.85;;;22.90;81.70;;;;;;5007670;28;20036;-59
2021/08/12 04:15:58;;;;;;;12.63;9.23;;;22.90;81.70;;;;;;4994488;28;20041;-59
2021/08/12 04:18:24;;;;;;;12.77;9.02;;;22.80;81.70;;;;;;5008748;28;20071;-59
2021/08/12 04:20:50;;;;;;;10.13;9.02;;;22.80;81.80;;;;;;5004374;28;20029;-59
2021/08/12 04:23:15;;;;;;;10.38;9.27;;;22.80;81.90;;;;;;5021068;28;20232;-59
2021/08/12 04:25:41;;;;;;;12.57;9.15;;;22.80;81.90;;;;;;5024627;28;20080;-59
2021/08/12 04:28:07;;;;;;;15.68;8.65;;;22.70;81.90;;;;;;5041573;28;20111;-59
2021/08/12 04:30:32;;;;;;;8.95;8.13;;;22.70;81.90;;;;;;5041525;28;20086;-60
2021/08/12 04:32:58;;;;;;;8.55;7.70;;;22.70;82.10;;;;;;5039722;28;20025;-59
2021/08/12 04:35:23;;;;;;;12.88;8.95;;;22.70;82.10;;;;;;5041334;28;20037;-59
2021/08/12 04:37:49;;;;;;;11.07;8.63;;;22.70;82.20;;;;;;5057797;28;20024;-59
2021/08/12 04:40:19;;;;;;;10.50;9.48;;;22.60;82.10;;;;;;5023230;28;20037;-59
2021/08/12 04:42:47;;;;;;;11.55;8.25;;;22.60;82.20;;;;;;5042261;28;20068;-59
2021/08/12 04:45:12;;;;;;;11.50;8.95;;;22.60;82.30;;;;;;5025129;28;20129;-59
2021/08/12 04:47:38;;;;;;;12.35;8.88;;;22.60;82.30;;;;;;5023443;28;20120;-59
2021/08/12 04:50:04;;;;;;;9.80;8.73;;;22.50;82.40;;;;;;5041140;28;20045;-60
2021/08/12 04:52:30;;;;;;;9.95;8.52;;;22.60;82.60;;;;;;5023244;28;20059;-60
2021/08/12 04:54:55;;;;;;;10.18;8.45;;;22.50;82.60;;;;;;5043053;28;20217;-59
2021/08/12 04:57:21;;;;;;;11.20;8.95;;;22.50;82.70;;;;;;5042545;28;20475;-59
2021/08/12 04:59:46;;;;;;;9.30;8.40;;;22.50;82.70;;;;;;5022313;28;20118;-59
2021/08/12 05:02:12;;;;;;;10.15;8.80;;;22.50;82.70;;;;;;5042825;28;20111;-59
2021/08/12 05:04:37;;;;;;;10.25;8.98;;;22.40;82.80;;;;;;5040267;28;20070;-59
2021/08/12 05:07:03;;;;;;;10.20;8.48;;;22.40;82.90;;;;;;5024243;28;20085;-59
2021/08/12 05:09:29;;;;;;;10.52;9.52;;;22.40;82.90;;;;;;5022464;28;20173;-59
2021/08/12 05:11:54;;;;;;;9.55;8.52;;;22.40;83.00;;;;;;5039562;28;20140;-59
2021/08/12 05:14:20;;;;;;;10.93;8.38;;;22.40;83.00;;;;;;5041593;28;20553;-59
2021/08/12 05:16:45;;;;;;;13.07;9.02;;;22.40;83.10;;;;;;5042187;28;20033;-59
2021/08/12 05:19:11;;;;;;;9.80;8.75;;;22.40;83.10;;;;;;5041886;28;20151;-59
2021/08/12 05:21:36;;;;;;;12.63;8.93;;;22.30;83.10;;;;;;5043254;28;20083;-60
2021/08/12 05:24:02;;;;;;;11.77;8.90;;;22.30;83.10;;;;;;5028105;28;20045;-59
2021/08/12 05:26:27;;;;;;;10.60;9.18;;;22.30;83.10;;;;;;5013210;28;20033;-59
2021/08/12 05:28:53;;;;;;;12.25;8.95;;;22.30;83.20;;;;;;5008254;28;20063;-59
2021/08/12 05:31:19;;;;;;;9.98;8.43;;;22.30;83.20;;;;;;5009362;28;20043;-59
2021/08/12 05:33:44;;;;;;;11.75;8.50;;;22.30;83.40;;;;;;4999750;28;20450;-59
2021/08/12 05:36:10;;;;;;;16.88;8.65;;;22.20;83.40;;;;;;5022517;28;20053;-59
2021/08/12 05:38:35;;;;;;;10.82;9.07;;;22.20;83.50;;;;;;5028377;28;20021;-60
2021/08/12 05:41:01;;;;;;;11.68;10.25;;;22.20;83.50;;;;;;5001739;28;20037;-60
2021/08/12 05:43:26;;;;;;;9.93;8.52;;;22.20;83.60;;;;;;5009328;28;20084;-59
2021/08/12 05:45:52;;;;;;;10.75;8.90;;;22.20;83.50;;;;;;4999780;28;20033;-59
2021/08/12 05:48:19;;;;;;;12.07;8.40;;;22.20;83.50;;;;;;5011703;28;20065;-59
2021/08/12 05:50:45;;;;;;;9.70;8.70;;;22.20;83.70;;;;;;5030422;28;20488;-59
2021/08/12 05:53:11;;;;;;;11.60;8.55;;;22.20;83.60;;;;;;5023894;28;20072;-60
2021/08/12 05:55:37;;;;;;;10.15;8.38;;;22.20;83.60;;;;;;5014455;28;20345;-59
2021/08/12 05:58:03;;;;;;;9.70;8.45;;;22.10;83.60;;;;;;5009426;28;20021;-59
2021/08/12 06:00:28;;;;;;;12.20;8.93;;;22.10;83.60;;;;;;5009589;28;20072;-59
2021/08/12 06:02:54;;;;;;;9.95;8.32;;;22.10;83.60;;;;;;5030288;28;20037;-59
2021/08/12 06:05:19;;;;;;;10.48;9.13;;;22.20;83.80;;;;;;5030326;28;20025;-59
2021/08/12 06:07:45;;;;;;;13.05;9.85;;;22.10;83.90;;;;;;5028666;28;20048;-59
2021/08/12 06:10:10;;;;;;;15.57;9.52;;;22.20;84.00;;;;;;5036685;28;20222;-59
2021/08/12 06:12:36;;;;;;;12.52;9.27;;;22.10;83.90;;;;;;5033495;28;20385;-59
2021/08/12 06:15:02;;;;;;;10.80;8.73;;;22.20;84.00;;;;;;5042775;28;20148;-59
2021/08/12 06:17:27;;;;;;;10.20;9.15;;;22.10;84.00;;;;;;5005042;28;20094;-60
2021/08/12 06:19:53;;;;;;;10.38;8.65;;;22.10;84.10;;;;;;5027123;28;20116;-62
2021/08/12 06:22:19;;;;;;;10.02;8.68;;;22.10;84.10;;;;;;5008138;28;20064;-62
2021/08/12 06:24:45;;;;;;;10.73;8.95;;;22.10;84.20;;;;;;5019282;28;20453;-59
2021/08/12 06:27:10;;;;;;;10.27;9.18;;;22.10;84.50;;;;;;5023691;28;20032;-59
2021/08/12 06:29:36;;;;;;;12.05;9.70;;;22.10;84.50;;;;;;5018595;28;20096;-59
2021/08/12 06:32:02;;;;;;;10.45;9.18;;;22.10;84.50;;;;;;5016190;28;20107;-60
2021/08/12 06:34:27;;;;;;;14.40;9.73;;;22.10;84.50;;;;;;5054036;28;20034;-59
2021/08/12 06:36:53;;;;;;;10.43;8.70;;;22.10;84.50;;;;;;5024555;28;20032;-59
2021/08/12 06:39:18;;;;;;;11.60;9.18;;;22.10;84.50;;;;;;5022048;28;20718;-59
2021/08/12 06:41:44;;;;;;;11.02;8.93;;;22.10;84.60;;;;;;5002439;28;20034;-59
2021/08/12 06:44:10;;;;;;;13.88;8.85;;;22.10;84.70;;;;;;5021712;28;20127;-59
2021/08/12 06:46:36;;;;;;;12.77;8.68;;;22.10;84.80;;;;;;5022293;28;20038;-59
2021/08/12 06:49:01;;;;;;;10.70;9.55;;;22.10;84.80;;;;;;5018915;28;20048;-59
2021/08/12 06:51:27;;;;;;;10.30;9.20;;;22.10;84.90;;;;;;5021796;28;20103;-59
2021/08/12 06:53:52;;;;;;;13.50;8.82;;;22.10;84.80;;;;;;5002479;28;20559;-59
2021/08/12 06:56:18;;;;;;;11.85;9.95;;;22.10;84.90;;;;;;5021108;28;20069;-59
2021/08/12 06:58:43;;;;;;;15.70;9.88;;;22.10;85.00;;;;;;5019446;28;20042;-59
2021/08/12 07:01:09;;;;;;;11.35;9.25;;;22.10;85.00;;;;;;5021812;28;20036;-59
2021/08/12 07:03:34;;;;;;;17.10;10.40;;;22.20;85.10;;;;;;5002701;28;20026;-59
2021/08/12 07:06:00;;;;;;;23.98;10.98;;;22.20;85.60;;;;;;5018631;28;20025;-60
2021/08/12 07:08:25;;;;;;;14.13;10.85;;;22.20;86.80;;;;;;5021489;28;20489;-59
2021/08/12 07:10:52;;;;;;;19.75;11.85;;;22.20;87.10;;;;;;5018767;28;20037;-59
2021/08/12 07:13:17;;;;;;;23.33;11.27;;;22.20;87.60;;;;;;5019169;28;20773;-59
2021/08/12 07:15:43;;;;;;;19.05;11.13;;;22.20;87.90;;;;;;5020850;28;20041;-59
2021/08/12 07:18:08;;;;;;;20.08;12.00;;;22.10;88.10;;;;;;5017965;28;20049;-59
2021/08/12 07:20:37;;;;;;;21.70;11.57;;;22.10;88.60;;;;;;5020681;28;20045;-60
2021/08/12 07:23:02;;;;;;;23.42;12.13;;;22.10;88.70;;;;;;5008290;28;20061;-59
2021/08/12 07:25:28;;;;;;;28.70;13.02;;;22.10;88.50;;;;;;5018465;28;20099;-59
2021/08/12 07:27:53;;;;;;;22.52;11.35;;;22.20;88.60;;;;;;5015422;28;20060;-59
2021/08/12 07:30:19;;;;;;;35.10;12.35;;;22.20;88.70;;;;;;5020164;28;20061;-60
2021/08/12 07:32:45;;;;;;;25.20;12.88;;;22.20;89.10;;;;;;4983887;28;20452;-59
2021/08/12 07:35:11;;;;;;;27.90;12.75;;;22.20;89.10;;;;;;5018220;28;20037;-59
2021/08/12 07:37:36;;;;;;;33.70;12.85;;;22.20;89.20;;;;;;5000181;28;20025;-60
2021/08/12 07:40:02;;;;;;;36.22;13.02;;;22.20;88.60;;;;;;5019683;28;20047;-59
2021/08/12 07:42:28;;;;;;;39.33;13.85;;;22.30;88.90;;;;;;5002779;28;20014;-59
2021/08/12 07:44:53;;;;;;;47.45;13.77;;;22.30;89.50;;;;;;5021589;28;20025;-59
2021/08/12 07:47:19;;;;;;;45.67;14.00;;;22.30;89.60;;;;;;5019940;28;20052;-59
2021/08/12 07:49:44;;;;;;;27.88;13.38;;;22.30;89.60;;;;;;5002758;28;20071;-59
2021/08/12 07:52:10;;;;;;;44.92;14.32;;;22.30;89.00;;;;;;4986033;28;20026;-59
2021/08/12 07:54:36;;;;;;;28.90;13.85;;;22.30;88.50;;;;;;5019547;28;20021;-59
2021/08/12 07:57:02;;;;;;;38.80;13.80;;;22.40;89.00;;;;;;5019890;28;20028;-59
2021/08/12 07:59:28;;;;;;;29.88;12.02;;;22.40;89.20;;;;;;5000090;28;20031;-59
2021/08/12 08:01:53;;;;;;;32.65;13.25;;;22.40;89.10;;;;;;5018374;28;20034;-59
2021/08/12 08:04:19;;;;;;;35.28;12.95;;;22.40;88.80;;;;;;5002834;28;20046;-59
2021/08/12 08:06:44;;;;;;;29.67;13.07;;;22.50;88.80;;;;;;5020098;28;20029;-59
2021/08/12 08:09:10;;;;;;;27.40;12.70;;;22.50;88.50;;;;;;5001776;28;20116;-59
2021/08/12 08:11:35;;;;;;;34.72;13.68;;;22.50;88.20;;;;;;5021707;28;21089;-59
2021/08/12 08:14:01;;;;;;;53.22;14.50;;;22.50;88.40;;;;;;5001388;28;20093;-59
2021/08/12 08:16:28;;;;;;;32.40;13.20;;;22.50;88.40;;;;;;4985464;28;20031;-60
2021/08/12 08:18:53;;;;;;;34.92;13.50;;;22.50;88.60;;;;;;4985687;28;20140;-62
2021/08/12 08:21:19;;;;;;;40.50;14.02;;;22.60;88.70;;;;;;4984616;28;20184;-60
2021/08/12 08:23:44;;;;;;;46.92;13.88;;;22.60;88.70;;;;;;5018358;28;20053;-60
2021/08/12 08:26:10;;;;;;;44.10;13.52;;;22.70;88.80;;;;;;5018919;28;20082;-60
2021/08/12 08:28:35;;;;;;;46.00;14.38;;;22.70;88.50;;;;;;5019276;28;21126;-60
2021/08/12 08:31:01;;;;;;;50.03;14.70;;;22.70;88.40;;;;;;5038104;28;20037;-60
2021/08/12 08:33:26;;;;;;;55.80;14.35;;;22.80;88.40;;;;;;5020777;28;20063;-60
2021/08/12 08:35:52;;;;;;;47.90;14.27;;;22.80;88.60;;;;;;5022906;28;20055;-60
2021/08/12 08:38:18;;;;;;;39.25;12.93;;;22.80;88.40;;;;;;5021014;28;20435;-61
2021/08/12 08:40:43;;;;;;;44.40;13.65;;;22.90;88.50;;;;;;5020431;28;20037;-61
2021/08/12 08:43:09;;;;;;;36.55;13.48;;;22.90;88.50;;;;;;5039856;28;20021;-61
2021/08/12 08:45:36;;;;;;;37.38;12.43;;;23.00;88.50;;;;;;5022704;28;20111;-62
2021/08/12 08:48:02;;;;;;;44.67;13.00;;;23.00;88.30;;;;;;5004909;28;20091;-60
2021/08/12 08:50:31;;;;;;;51.10;12.35;;;23.00;88.10;;;;;;5021710;28;20435;-60
2021/08/12 08:52:57;;;;;;;44.90;12.93;;;23.10;88.00;;;;;;5040195;28;20033;-60
2021/08/12 08:55:23;;;;;;;47.00;12.88;;;23.10;87.90;;;;;;5019087;28;20074;-61
2021/08/12 08:57:49;;;;;;;40.75;12.38;;;23.20;87.90;;;;;;5041211;28;20029;-60
2021/08/12 09:00:16;;;;;;;39.50;12.40;;;23.20;87.70;;;;;;5023221;28;20508;-60
2021/08/12 09:02:43;;;;;;;27.70;12.07;;;23.20;87.50;;;;;;5042548;28;20448;-60
2021/08/12 09:05:09;;;;;;;29.60;12.60;;;23.20;87.20;;;;;;5019490;28;20044;-60
2021/08/12 09:07:34;;;;;;;61.17;15.05;;;23.30;87.20;;;;;;5040009;28;20037;-60
2021/08/12 09:10:00;;;;;;;42.85;12.48;;;23.30;86.90;;;;;;5036558;28;20032;-60
2021/08/12 09:12:25;;;;;;;50.22;13.77;;;23.30;86.70;;;;;;5039797;28;20409;-60
2021/08/12 09:14:51;;;;;;;56.67;13.45;;;23.30;86.50;;;;;;5020377;28;20044;-60
2021/08/12 09:17:22;;;;;;;50.35;13.93;;;23.30;86.40;;;;;;5015511;28;20128;-60
2021/08/12 09:20:18;;;;;;;57.50;13.70;;;23.40;86.30;;;;;;5035177;28;20041;-60
2021/08/12 09:22:46;;;;;;;43.63;13.20;;;23.40;86.30;;;;;;5010895;28;20065;-60
2021/08/12 09:25:12;;;;;;;42.88;12.95;;;23.40;86.10;;;;;;5001407;28;20055;-60
2021/08/12 09:27:38;;;;;;;43.05;12.27;;;23.40;85.80;;;;;;5019968;28;20692;-60
2021/08/12 09:30:13;;;;;;;49.30;12.63;;;23.50;85.70;;;;;;5019412;28;20484;-60
2021/08/12 09:32:47;;;;;;;51.67;14.02;;;23.50;85.50;;;;;;5033145;28;20183;-60
2021/08/12 09:35:13;;;;;;;59.75;12.70;;;23.60;85.30;;;;;;5016436;28;20123;-60
2021/08/12 09:37:39;;;;;;;51.13;13.80;;;23.60;85.50;;;;;;5018694;28;20142;-60
2021/08/12 09:40:05;;;;;;;56.28;13.80;;;23.60;84.70;;;;;;5038383;28;20020;-60
2021/08/12 09:42:53;;;;;;;52.35;13.07;;;23.70;84.50;;;;;;5019173;28;20083;-60
2021/08/12 09:45:23;;;;;;;45.70;11.23;;;23.70;84.30;;;;;;4999364;28;20025;-60
2021/08/12 09:47:48;;;;;;;47.88;11.55;;;23.70;83.90;;;;;;5017685;28;20029;-60
2021/08/12 09:50:25;;;;;;;40.38;11.35;;;23.80;83.90;;;;;;5035687;28;20699;-60
2021/08/12 09:52:51;;;;;;;32.67;10.57;;;23.90;83.60;;;;;;5019890;28;20156;-60
2021/08/12 09:55:18;;;;;;;41.92;10.68;;;23.90;83.00;;;;;;5018103;28;20024;-60
2021/08/12 09:57:52;;;;;;;53.55;13.05;;;24.00;83.10;;;;;;5005222;28;20136;-60
2021/08/12 10:00:21;;;;;;;42.88;11.40;;;24.00;83.00;;;;;;5020322;28;20365;-60
2021/08/12 10:02:46;;;;;;;30.95;10.18;;;24.10;82.80;;;;;;5038534;28;20829;-60
2021/08/12 10:05:12;;;;;;;31.98;10.80;;;24.10;82.30;;;;;;5039508;28;20036;-60
2021/08/12 10:07:42;;;;;;;29.20;9.77;;;24.10;81.80;;;;;;5020816;28;20033;-60
2021/08/12 10:10:18;;;;;;;28.05;10.27;;;24.20;81.60;;;;;;5022629;28;20049;-60
2021/08/12 10:12:47;;;;;;;;;;;24.20;81.60;;;;;;5036152;28;20170;-60
2021/08/12 10:15:15;;;;;;;56.03;12.05;;;24.20;81.30;;;;;;5020831;28;19908;-59
2021/08/12 10:17:41;;;;;;;33.08;10.68;;;24.20;81.00;;;;;;5021229;28;20025;-60
2021/08/12 10:20:17;;;;;;;46.38;11.18;;;24.30;80.90;;;;;;5020150;28;20410;-60
2021/08/12 10:22:43;;;;;;;43.85;11.65;;;24.30;80.70;;;;;;5023699;28;20215;-60
2021/08/12 10:25:09;;;;;;;30.10;10.07;;;24.40;80.40;;;;;;5006968;28;20140;-60
2021/08/12 10:27:35;;;;;;;28.73;10.10;;;24.40;80.20;;;;;;5020979;28;20107;-60
2021/08/12 10:30:00;;;;;;;32.75;9.90;;;24.50;80.00;;;;;;5020679;28;20118;-60
2021/08/12 10:32:26;;;;;;;28.92;9.90;;;24.50;80.00;;;;;;5021461;28;20146;-60
2021/08/12 10:34:51;;;;;;;45.47;11.90;;;24.50;79.70;;;;;;5020650;28;20041;-60
2021/08/12 10:37:17;;;;;;;54.42;12.18;;;24.60;79.60;;;;;;5017587;28;20044;-60
2021/08/12 10:39:42;;;;;;;36.03;10.77;;;24.60;79.50;;;;;;5015540;28;20675;-60
2021/08/12 10:42:08;;;;;;;49.97;11.65;;;24.60;79.30;;;;;;5017907;28;20207;-60
2021/08/12 10:44:34;;;;;;;43.33;10.23;;;24.70;79.20;;;;;;5019857;28;20115;-60
2021/08/12 10:47:00;;;;;;;40.63;10.40;;;24.90;79.10;;;;;;5037935;28;20082;-60
2021/08/12 10:49:29;;;;;;;29.65;10.20;;;24.80;78.90;;;;;;5020534;28;20029;-60
2021/08/12 10:52:00;;;;;;;31.00;9.63;;;24.80;78.60;;;;;;5020848;28;20032;-60
2021/08/12 10:54:25;;;;;;;35.72;9.10;;;24.90;78.40;;;;;;5019967;28;20028;-60
2021/08/12 10:56:51;;;;;;;41.38;10.65;;;24.90;78.20;;;;;;5021793;28;20461;-60
2021/08/12 10:59:16;;;;;;;32.42;9.65;;;25.00;78.40;;;;;;5006591;28;20400;-60
2021/08/12 11:01:42;;;;;;;34.28;10.32;;;25.00;78.10;;;;;;5018146;28;20504;-60
2021/08/12 11:04:08;;;;;;;30.23;9.90;;;25.10;78.00;;;;;;5038231;28;20024;-59
2021/08/12 11:06:37;;;;;;;38.10;9.90;;;25.10;77.80;;;;;;5018387;28;20025;-60
2021/08/12 11:09:04;;;;;;;36.97;10.00;;;25.20;77.70;;;;;;5021243;28;20028;-60
2021/08/12 11:11:30;;;;;;;38.78;9.95;;;25.20;77.50;;;;;;5021320;28;20136;-60
2021/08/12 11:13:57;;;;;;;24.48;9.35;;;25.30;77.40;;;;;;5113590;22;20468;-60
2021/08/12 11:16:23;;;;;;;37.58;9.73;;;25.30;77.30;;;;;;5041799;28;20048;-60
2021/08/12 11:18:56;;;;;;;34.65;9.38;;;25.40;77.00;;;;;;5035972;28;20090;-60
2021/08/12 11:21:31;;;;;;;30.20;9.40;;;25.50;76.80;;;;;;5060627;28;20547;-60
2021/08/12 11:24:09;;;;;;;41.10;9.45;;;25.60;76.50;;;;;;5078217;28;20032;-60
2021/08/12 11:26:40;;;;;;;59.95;11.60;;;25.60;76.20;;;;;;5054677;28;20650;-59
2021/08/12 11:29:06;;;;;;;34.65;9.60;;;25.70;75.70;;;;;;5056154;28;20051;-59
2021/08/12 11:31:33;;;;;;;40.90;9.82;;;25.80;75.30;;;;;;5042237;28;20505;-60
2021/08/12 11:34:02;;;;;;;22.92;8.77;;;25.90;74.90;;;;;;5072115;28;20032;-61
2021/08/12 11:36:38;;;;;;;29.13;9.27;;;26.00;74.70;;;;;;5042111;28;20398;-61
2021/08/12 11:39:04;;;;;;;33.40;8.25;;;26.10;74.60;;;;;;5055404;28;20111;-61
2021/08/12 11:41:40;;;;;;;28.60;8.90;;;26.20;74.20;;;;;;5057527;28;20043;-61
2021/08/12 11:44:13;;;;;;;22.48;8.07;;;26.30;74.00;;;;;;5060351;28;20047;-61
2021/08/12 11:46:39;;;;;;;39.95;9.35;;;26.40;73.70;;;;;;5076802;28;20016;-60
2021/08/12 11:49:05;;;;;;;21.90;8.68;;;26.40;73.60;;;;;;5061082;28;20044;-60
2021/08/12 11:51:32;;;;;;;26.92;8.32;;;26.50;73.30;;;;;;5079506;28;20545;-60
2021/08/12 11:53:58;;;;;;;25.27;8.38;;;26.60;72.60;;;;;;5043076;28;20421;-61
2021/08/12 11:56:27;;;;;;;25.83;8.35;;;26.70;72.30;;;;;;5029321;28;20052;-61
2021/08/12 11:58:55;;;;;;;33.38;8.50;;;26.80;72.00;;;;;;5042981;28;20059;-61
2021/08/12 12:01:25;;;;;;;30.52;8.90;;;26.80;71.50;;;;;;5051230;28;20036;-61
2021/08/12 12:03:57;;;;;;;23.75;8.05;;;26.90;71.90;;;;;;5059536;28;20177;-61
2021/08/12 12:06:32;;;;;;;30.42;9.15;;;27.00;70.80;;;;;;5056023;28;20093;-61
2021/08/12 12:08:57;;;;;;;38.85;8.60;;;27.10;70.70;;;;;;5058545;28;20668;-61
2021/08/12 12:11:23;;;;;;;39.33;9.52;;;27.10;70.60;;;;;;5075596;28;20046;-61
2021/08/12 12:13:48;;;;;;;35.25;9.68;;;27.20;70.40;;;;;;5076826;28;20031;-61
2021/08/12 12:16:14;;;;;;;28.48;8.35;;;27.20;70.20;;;;;;5079337;28;20047;-61
2021/08/12 12:18:41;;;;;;;31.92;8.65;;;27.30;70.20;;;;;;5034406;28;20063;-61
2021/08/12 12:21:10;;;;;;;32.15;9.55;;;27.40;69.50;;;;;;5043239;28;20029;-61
2021/08/12 12:23:36;;;;;;;29.90;8.68;;;27.50;69.40;;;;;;5073301;28;20024;-62
2021/08/12 12:26:03;;;;;;;53.70;9.55;;;27.50;68.80;;;;;;5076058;28;20044;-62
2021/08/12 12:28:30;;;;;;;35.42;9.30;;;27.60;68.80;;;;;;5058684;28;20032;-61
2021/08/12 12:30:55;;;;;;;48.63;10.20;;;27.60;68.90;;;;;;5051171;28;20012;-61